sensor_id;sensor_type;location;lat;lon;timestamp;temperature;humidity
40374;DHT22;26079;45.958;12.492;2023-02-03T00:00:24;0.20;99.90
40374;DHT22;26079;45.958;12.492;2023-02-03T00:02:51;0.20;99.90
40374;DHT22;26079;45.958;12.492;2023-02-03T00:05:17;0.30;99.90
40374;DHT22;26079;45.958;12.492;2023-02-03T00:07:43;0.30;99.90
40374;DHT22;26079;45.958;12.492;2023-02-03T00:10:09;0.30;99.90
40374;DHT22;26079;45.958;12.492;2023-02-03T00:12:35;0.20;99.90
40374;DHT22;26079;45.958;12.492;2023-02-03T00:15:01;0.20;99.90
40374;DHT22;26079;45.958;12.492;2023-02-03T00:17:26;0.10;99.90
40374;DHT22;26079;45.958;12.492;2023-02-03T00:19:52;0.10;99.90
40374;DHT22;26079;45.958;12.492;2023-02-03T00:22:18;0.10;99.90
40374;DHT22;26079;45.958;12.492;2023-02-03T00:24:43;0.10;99.90
40374;DHT22;26079;45.958;12.492;2023-02-03T00:27:09;0.10;99.90
40374;DHT22;26079;45.958;12.492;2023-02-03T00:29:35;0.10;99.90
40374;DHT22;26079;45.958;12.492;2023-02-03T00:32:00;0.10;99.90
40374;DHT22;26079;45.958;12.492;2023-02-03T00:34:29;0.10;99.90
40374;DHT22;26079;45.958;12.492;2023-02-03T00:36:56;0.10;99.90
40374;DHT22;26079;45.958;12.492;2023-02-03T00:39:22;0.00;99.90
40374;DHT22;26079;45.958;12.492;2023-02-03T00:41:48;-0.10;99.90
40374;DHT22;26079;45.958;12.492;2023-02-03T00:44:14;-0.20;99.90
40374;DHT22;26079;45.958;12.492;2023-02-03T00:46:40;-0.20;99.90
40374;DHT22;26079;45.958;12.492;2023-02-03T00:49:05;-0.20;99.90
40374;DHT22;26079;45.958;12.492;2023-02-03T00:51:32;0.00;99.90
40374;DHT22;26079;45.958;12.492;2023-02-03T00:53:58;0.00;99.90
40374;DHT22;26079;45.958;12.492;2023-02-03T00:56:24;0.00;99.90
40374;DHT22;26079;45.958;12.492;2023-02-03T00:58:50;0.00;99.90
40374;DHT22;26079;45.958;12.492;2023-02-03T01:01:16;0.00;99.90
40374;DHT22;26079;45.958;12.492;2023-02-03T01:03:42;0.00;99.90
40374;DHT22;26079;45.958;12.492;2023-02-03T01:06:11;0.00;99.90
40374;DHT22;26079;45.958;12.492;2023-02-03T01:08:37;0.00;99.90
40374;DHT22;26079;45.958;12.492;2023-02-03T01:11:08;0.10;99.90
40374;DHT22;26079;45.958;12.492;2023-02-03T01:13:34;0.20;99.90
40374;DHT22;26079;45.958;12.492;2023-02-03T01:15:59;0.20;99.90
40374;DHT22;26079;45.958;12.492;2023-02-03T01:18:25;0.20;99.90
40374;DHT22;26079;45.958;12.492;2023-02-03T01:20:52;0.30;99.90
40374;DHT22;26079;45.958;12.492;2023-02-03T01:23:18;0.30;99.90
40374;DHT22;26079;45.958;12.492;2023-02-03T01:25:43;0.40;99.90
40374;DHT22;26079;45.958;12.492;2023-02-03T01:28:09;0.40;99.90
40374;DHT22;26079;45.958;12.492;2023-02-03T01:30:35;0.30;99.90
40374;DHT22;26079;45.958;12.492;2023-02-03T01:33:00;0.30;99.90
40374;DHT22;26079;45.958;12.492;2023-02-03T01:35:26;0.20;99.90
40374;DHT22;26079;45.958;12.492;2023-02-03T01:37:52;0.10;99.90
40374;DHT22;26079;45.958;12.492;2023-02-03T01:40:18;0.10;99.90
40374;DHT22;26079;45.958;12.492;2023-02-03T01:42:43;0.10;99.90
40374;DHT22;26079;45.958;12.492;2023-02-03T01:45:10;0.00;99.90
40374;DHT22;26079;45.958;12.492;2023-02-03T01:47:42;0.00;99.90
40374;DHT22;26079;45.958;12.492;2023-02-03T01:50:19;0.00;99.90
40374;DHT22;26079;45.958;12.492;2023-02-03T01:52:53;0.10;99.90
40374;DHT22;26079;45.958;12.492;2023-02-03T01:55:26;0.30;99.90
40374;DHT22;26079;45.958;12.492;2023-02-03T01:58:04;0.50;99.90
40374;DHT22;26079;45.958;12.492;2023-02-03T02:00:31;0.60;99.90
40374;DHT22;26079;45.958;12.492;2023-02-03T02:02:58;0.70;99.90
40374;DHT22;26079;45.958;12.492;2023-02-03T02:07:55;0.60;99.90
40374;DHT22;26079;45.958;12.492;2023-02-03T02:10:22;0.60;99.90
40374;DHT22;26079;45.958;12.492;2023-02-03T02:12:49;0.60;99.90
40374;DHT22;26079;45.958;12.492;2023-02-03T02:15:14;0.60;99.90
40374;DHT22;26079;45.958;12.492;2023-02-03T02:23:36;0.40;99.90
40374;DHT22;26079;45.958;12.492;2023-02-03T02:34:39;0.20;99.90
40374;DHT22;26079;45.958;12.492;2023-02-03T02:45:48;-0.10;99.90
40374;DHT22;26079;45.958;12.492;2023-02-03T02:51:08;-0.10;99.90
40374;DHT22;26079;45.958;12.492;2023-02-03T02:53:39;-0.20;99.90
40374;DHT22;26079;45.958;12.492;2023-02-03T02:56:09;-0.20;99.90
40374;DHT22;26079;45.958;12.492;2023-02-03T02:58:37;-0.30;99.90
40374;DHT22;26079;45.958;12.492;2023-02-03T03:01:06;-0.30;99.90
40374;DHT22;26079;45.958;12.492;2023-02-03T03:03:32;-0.20;99.90
40374;DHT22;26079;45.958;12.492;2023-02-03T03:06:04;-0.20;99.90
40374;DHT22;26079;45.958;12.492;2023-02-03T03:08:59;-0.20;99.90
40374;DHT22;26079;45.958;12.492;2023-02-03T03:11:29;-0.20;99.90
40374;DHT22;26079;45.958;12.492;2023-02-03T03:13:56;-0.10;99.90
40374;DHT22;26079;45.958;12.492;2023-02-03T03:16:24;-0.10;99.90
40374;DHT22;26079;45.958;12.492;2023-02-03T03:18:55;-0.10;99.90
40374;DHT22;26079;45.958;12.492;2023-02-03T03:21:26;-0.20;99.90
40374;DHT22;26079;45.958;12.492;2023-02-03T03:23:55;-0.20;99.90
40374;DHT22;26079;45.958;12.492;2023-02-03T03:29:21;-0.20;99.90
40374;DHT22;26079;45.958;12.492;2023-02-03T03:31:49;-0.20;99.90
40374;DHT22;26079;45.958;12.492;2023-02-03T03:34:15;-0.20;99.90
40374;DHT22;26079;45.958;12.492;2023-02-03T03:42:24;-0.30;99.90
40374;DHT22;26079;45.958;12.492;2023-02-03T03:44:56;-0.30;99.90
40374;DHT22;26079;45.958;12.492;2023-02-03T03:47:31;-0.30;99.90
40374;DHT22;26079;45.958;12.492;2023-02-03T03:50:00;-0.40;99.90
40374;DHT22;26079;45.958;12.492;2023-02-03T03:52:30;-0.40;99.90
40374;DHT22;26079;45.958;12.492;2023-02-03T03:54:58;-0.50;99.90
40374;DHT22;26079;45.958;12.492;2023-02-03T03:57:32;-0.50;99.90
40374;DHT22;26079;45.958;12.492;2023-02-03T04:00:03;-0.50;99.90
40374;DHT22;26079;45.958;12.492;2023-02-03T04:02:32;-0.60;99.90
40374;DHT22;26079;45.958;12.492;2023-02-03T04:04:59;-0.60;99.90
40374;DHT22;26079;45.958;12.492;2023-02-03T04:07:37;-0.60;99.90
40374;DHT22;26079;45.958;12.492;2023-02-03T04:10:06;-0.60;99.90
40374;DHT22;26079;45.958;12.492;2023-02-03T04:12:31;-0.60;99.90
40374;DHT22;26079;45.958;12.492;2023-02-03T04:14:57;-0.60;99.90
40374;DHT22;26079;45.958;12.492;2023-02-03T04:17:23;-0.70;99.90
40374;DHT22;26079;45.958;12.492;2023-02-03T04:19:48;-0.70;99.90
40374;DHT22;26079;45.958;12.492;2023-02-03T04:22:14;-0.70;99.90
40374;DHT22;26079;45.958;12.492;2023-02-03T04:24:40;-0.70;99.90
40374;DHT22;26079;45.958;12.492;2023-02-03T04:27:05;-0.80;99.90
40374;DHT22;26079;45.958;12.492;2023-02-03T04:29:31;-0.70;99.90
40374;DHT22;26079;45.958;12.492;2023-02-03T04:31:57;-0.70;99.90
40374;DHT22;26079;45.958;12.492;2023-02-03T04:34:22;-0.70;99.90
40374;DHT22;26079;45.958;12.492;2023-02-03T04:36:48;-0.70;99.90
40374;DHT22;26079;45.958;12.492;2023-02-03T04:39:14;-0.70;99.90
40374;DHT22;26079;45.958;12.492;2023-02-03T04:41:39;-0.70;99.90
40374;DHT22;26079;45.958;12.492;2023-02-03T04:44:06;-0.70;99.90
40374;DHT22;26079;45.958;12.492;2023-02-03T04:46:31;-0.80;99.90
40374;DHT22;26079;45.958;12.492;2023-02-03T04:48:57;-0.80;99.90
40374;DHT22;26079;45.958;12.492;2023-02-03T04:51:23;-0.80;99.90
40374;DHT22;26079;45.958;12.492;2023-02-03T04:53:48;-0.80;99.90
40374;DHT22;26079;45.958;12.492;2023-02-03T04:56:14;-0.80;99.90
40374;DHT22;26079;45.958;12.492;2023-02-03T04:58:41;-0.70;99.90
40374;DHT22;26079;45.958;12.492;2023-02-03T05:01:07;-0.70;99.90
40374;DHT22;26079;45.958;12.492;2023-02-03T05:03:34;-0.70;99.90
40374;DHT22;26079;45.958;12.492;2023-02-03T05:05:59;-0.70;99.90
40374;DHT22;26079;45.958;12.492;2023-02-03T05:08:25;-0.70;99.90
40374;DHT22;26079;45.958;12.492;2023-02-03T05:10:51;-0.80;99.90
40374;DHT22;26079;45.958;12.492;2023-02-03T05:13:17;-0.80;99.90
40374;DHT22;26079;45.958;12.492;2023-02-03T05:15:42;-0.90;99.90
40374;DHT22;26079;45.958;12.492;2023-02-03T05:18:08;-1.00;99.90
40374;DHT22;26079;45.958;12.492;2023-02-03T05:20:34;-1.00;99.90
40374;DHT22;26079;45.958;12.492;2023-02-03T05:22:59;-1.10;99.90
40374;DHT22;26079;45.958;12.492;2023-02-03T05:25:26;-1.00;99.90
40374;DHT22;26079;45.958;12.492;2023-02-03T05:27:51;-1.00;99.90
40374;DHT22;26079;45.958;12.492;2023-02-03T05:30:17;-1.00;99.90
40374;DHT22;26079;45.958;12.492;2023-02-03T05:32:43;-1.00;99.90
40374;DHT22;26079;45.958;12.492;2023-02-03T05:35:08;-1.00;99.90
40374;DHT22;26079;45.958;12.492;2023-02-03T05:37:34;-1.20;99.90
40374;DHT22;26079;45.958;12.492;2023-02-03T05:40:00;-1.20;99.90
40374;DHT22;26079;45.958;12.492;2023-02-03T05:42:49;-1.20;99.90
40374;DHT22;26079;45.958;12.492;2023-02-03T05:45:15;-1.30;99.90
40374;DHT22;26079;45.958;12.492;2023-02-03T05:47:41;-1.20;99.90
40374;DHT22;26079;45.958;12.492;2023-02-03T05:50:07;-1.20;99.90
40374;DHT22;26079;45.958;12.492;2023-02-03T05:52:33;-1.10;99.90
40374;DHT22;26079;45.958;12.492;2023-02-03T05:54:58;-1.10;99.90
40374;DHT22;26079;45.958;12.492;2023-02-03T05:57:24;-1.10;99.90
40374;DHT22;26079;45.958;12.492;2023-02-03T05:59:50;-1.00;99.90
40374;DHT22;26079;45.958;12.492;2023-02-03T06:02:15;-1.00;99.90
40374;DHT22;26079;45.958;12.492;2023-02-03T06:04:41;-1.10;99.90
40374;DHT22;26079;45.958;12.492;2023-02-03T06:07:07;-1.10;99.90
40374;DHT22;26079;45.958;12.492;2023-02-03T06:09:32;-1.10;99.90
40374;DHT22;26079;45.958;12.492;2023-02-03T06:11:58;-1.10;99.90
40374;DHT22;26079;45.958;12.492;2023-02-03T06:14:24;-1.10;99.90
40374;DHT22;26079;45.958;12.492;2023-02-03T06:16:49;-1.10;99.90
40374;DHT22;26079;45.958;12.492;2023-02-03T06:19:15;-1.00;99.90
40374;DHT22;26079;45.958;12.492;2023-02-03T06:21:41;-1.00;99.90
40374;DHT22;26079;45.958;12.492;2023-02-03T06:24:06;-0.90;99.90
40374;DHT22;26079;45.958;12.492;2023-02-03T06:26:32;-0.80;99.90
40374;DHT22;26079;45.958;12.492;2023-02-03T06:28:58;-0.80;99.90
40374;DHT22;26079;45.958;12.492;2023-02-03T06:31:23;-0.80;99.90
40374;DHT22;26079;45.958;12.492;2023-02-03T06:33:49;-0.70;99.90
40374;DHT22;26079;45.958;12.492;2023-02-03T06:36:15;-0.70;99.90
40374;DHT22;26079;45.958;12.492;2023-02-03T06:38:40;-0.70;99.90
40374;DHT22;26079;45.958;12.492;2023-02-03T06:41:06;-0.70;99.90
40374;DHT22;26079;45.958;12.492;2023-02-03T06:43:32;-0.70;99.90
40374;DHT22;26079;45.958;12.492;2023-02-03T06:45:58;-0.60;99.90
40374;DHT22;26079;45.958;12.492;2023-02-03T06:48:23;-0.70;99.90
40374;DHT22;26079;45.958;12.492;2023-02-03T06:50:49;-0.70;99.90
40374;DHT22;26079;45.958;12.492;2023-02-03T06:53:15;-0.70;99.90
40374;DHT22;26079;45.958;12.492;2023-02-03T06:55:40;-0.70;99.90
40374;DHT22;26079;45.958;12.492;2023-02-03T06:58:06;-0.70;99.90
40374;DHT22;26079;45.958;12.492;2023-02-03T07:00:32;-0.70;99.90
40374;DHT22;26079;45.958;12.492;2023-02-03T07:02:58;-0.70;99.90
40374;DHT22;26079;45.958;12.492;2023-02-03T07:05:24;-0.60;99.90
40374;DHT22;26079;45.958;12.492;2023-02-03T07:07:50;-0.60;99.90
40374;DHT22;26079;45.958;12.492;2023-02-03T07:10:16;-0.50;99.90
40374;DHT22;26079;45.958;12.492;2023-02-03T07:12:42;-0.50;99.90
40374;DHT22;26079;45.958;12.492;2023-02-03T07:15:09;-0.40;99.90
40374;DHT22;26079;45.958;12.492;2023-02-03T07:17:36;-0.40;99.90
40374;DHT22;26079;45.958;12.492;2023-02-03T07:20:02;-0.40;99.90
40374;DHT22;26079;45.958;12.492;2023-02-03T07:22:27;-0.30;99.90
40374;DHT22;26079;45.958;12.492;2023-02-03T07:24:53;-0.30;99.90
40374;DHT22;26079;45.958;12.492;2023-02-03T07:27:19;-0.20;99.90
40374;DHT22;26079;45.958;12.492;2023-02-03T07:29:45;-0.10;99.90
40374;DHT22;26079;45.958;12.492;2023-02-03T07:32:10;-0.10;99.90
40374;DHT22;26079;45.958;12.492;2023-02-03T07:34:36;0.00;99.90
40374;DHT22;26079;45.958;12.492;2023-02-03T07:37:02;0.10;99.90
40374;DHT22;26079;45.958;12.492;2023-02-03T07:39:27;0.10;99.90
40374;DHT22;26079;45.958;12.492;2023-02-03T07:41:53;0.20;99.90
40374;DHT22;26079;45.958;12.492;2023-02-03T07:44:19;0.20;99.90
40374;DHT22;26079;45.958;12.492;2023-02-03T07:46:45;0.30;99.90
40374;DHT22;26079;45.958;12.492;2023-02-03T07:49:11;0.40;99.90
40374;DHT22;26079;45.958;12.492;2023-02-03T07:51:37;0.50;99.90
40374;DHT22;26079;45.958;12.492;2023-02-03T07:54:03;0.50;99.90
40374;DHT22;26079;45.958;12.492;2023-02-03T07:56:29;0.60;99.90
40374;DHT22;26079;45.958;12.492;2023-02-03T07:58:57;0.60;99.90
40374;DHT22;26079;45.958;12.492;2023-02-03T08:01:23;0.80;99.90
40374;DHT22;26079;45.958;12.492;2023-02-03T08:03:49;0.90;99.90
40374;DHT22;26079;45.958;12.492;2023-02-03T08:06:15;1.10;99.90
40374;DHT22;26079;45.958;12.492;2023-02-03T08:08:41;1.30;99.90
40374;DHT22;26079;45.958;12.492;2023-02-03T08:11:06;1.60;99.90
40374;DHT22;26079;45.958;12.492;2023-02-03T08:13:32;1.90;99.90
40374;DHT22;26079;45.958;12.492;2023-02-03T08:15:58;2.10;99.90
40374;DHT22;26079;45.958;12.492;2023-02-03T08:18:24;2.20;99.90
40374;DHT22;26079;45.958;12.492;2023-02-03T08:20:49;2.30;99.90
40374;DHT22;26079;45.958;12.492;2023-02-03T08:23:15;2.40;99.90
40374;DHT22;26079;45.958;12.492;2023-02-03T08:25:41;2.50;99.90
40374;DHT22;26079;45.958;12.492;2023-02-03T08:28:06;2.50;99.90
40374;DHT22;26079;45.958;12.492;2023-02-03T08:30:32;2.50;99.90
40374;DHT22;26079;45.958;12.492;2023-02-03T08:32:58;2.60;99.90
40374;DHT22;26079;45.958;12.492;2023-02-03T08:35:24;2.60;99.90
40374;DHT22;26079;45.958;12.492;2023-02-03T08:37:50;2.70;99.90
40374;DHT22;26079;45.958;12.492;2023-02-03T08:40:16;2.80;99.90
40374;DHT22;26079;45.958;12.492;2023-02-03T08:42:42;2.90;99.90
40374;DHT22;26079;45.958;12.492;2023-02-03T08:45:08;3.00;99.90
40374;DHT22;26079;45.958;12.492;2023-02-03T08:47:34;3.10;99.90
40374;DHT22;26079;45.958;12.492;2023-02-03T08:50:02;3.10;99.90
40374;DHT22;26079;45.958;12.492;2023-02-03T08:52:28;3.20;99.90
40374;DHT22;26079;45.958;12.492;2023-02-03T08:54:54;3.20;99.90
40374;DHT22;26079;45.958;12.492;2023-02-03T08:57:20;3.20;99.90
40374;DHT22;26079;45.958;12.492;2023-02-03T08:59:45;3.30;99.90
40374;DHT22;26079;45.958;12.492;2023-02-03T09:02:16;3.30;99.90
40374;DHT22;26079;45.958;12.492;2023-02-03T09:04:43;3.30;99.90
40374;DHT22;26079;45.958;12.492;2023-02-03T09:07:09;3.40;99.90
40374;DHT22;26079;45.958;12.492;2023-02-03T09:09:36;3.50;99.90
40374;DHT22;26079;45.958;12.492;2023-02-03T09:12:01;3.60;99.90
40374;DHT22;26079;45.958;12.492;2023-02-03T09:14:30;3.70;99.90
40374;DHT22;26079;45.958;12.492;2023-02-03T09:16:57;3.80;99.90
40374;DHT22;26079;45.958;12.492;2023-02-03T09:19:23;3.80;99.90
40374;DHT22;26079;45.958;12.492;2023-02-03T09:21:48;4.00;99.90
40374;DHT22;26079;45.958;12.492;2023-02-03T09:24:16;4.10;99.90
40374;DHT22;26079;45.958;12.492;2023-02-03T09:26:42;4.20;99.90
40374;DHT22;26079;45.958;12.492;2023-02-03T09:29:08;4.20;99.90
40374;DHT22;26079;45.958;12.492;2023-02-03T09:31:34;4.30;99.90
40374;DHT22;26079;45.958;12.492;2023-02-03T09:33:59;4.40;99.90
40374;DHT22;26079;45.958;12.492;2023-02-03T09:36:25;4.50;99.90
40374;DHT22;26079;45.958;12.492;2023-02-03T09:38:51;4.70;99.90
40374;DHT22;26079;45.958;12.492;2023-02-03T09:43:53;5.20;99.90
40374;DHT22;26079;45.958;12.492;2023-02-03T09:46:25;5.30;99.90
40374;DHT22;26079;45.958;12.492;2023-02-03T09:48:55;5.50;99.90
40374;DHT22;26079;45.958;12.492;2023-02-03T09:51:26;5.60;99.90
40374;DHT22;26079;45.958;12.492;2023-02-03T09:54:16;5.60;99.90
40374;DHT22;26079;45.958;12.492;2023-02-03T09:56:43;5.70;99.90
40374;DHT22;26079;45.958;12.492;2023-02-03T09:59:15;5.70;99.90
40374;DHT22;26079;45.958;12.492;2023-02-03T10:04:58;5.90;99.20
40374;DHT22;26079;45.958;12.492;2023-02-03T10:11:11;6.10;97.90
40374;DHT22;26079;45.958;12.492;2023-02-03T10:15:52;6.30;95.40
40374;DHT22;26079;45.958;12.492;2023-02-03T10:18:35;6.40;93.60
40374;DHT22;26079;45.958;12.492;2023-02-03T10:21:33;6.50;91.60
40374;DHT22;26079;45.958;12.492;2023-02-03T10:24:03;6.80;91.40
40374;DHT22;26079;45.958;12.492;2023-02-03T10:26:31;6.90;92.20
40374;DHT22;26079;45.958;12.492;2023-02-03T10:29:03;6.90;92.00
40374;DHT22;26079;45.958;12.492;2023-02-03T10:31:35;6.90;91.30
40374;DHT22;26079;45.958;12.492;2023-02-03T10:34:10;7.00;90.90
40374;DHT22;26079;45.958;12.492;2023-02-03T10:39:38;7.30;89.80
40374;DHT22;26079;45.958;12.492;2023-02-03T10:42:06;7.40;89.70
40374;DHT22;26079;45.958;12.492;2023-02-03T10:47:32;7.60;88.10
40374;DHT22;26079;45.958;12.492;2023-02-03T10:50:04;7.60;88.50
40374;DHT22;26079;45.958;12.492;2023-02-03T10:52:33;7.70;87.80
40374;DHT22;26079;45.958;12.492;2023-02-03T10:57:52;7.80;87.40
40374;DHT22;26079;45.958;12.492;2023-02-03T11:00:28;7.90;87.80
40374;DHT22;26079;45.958;12.492;2023-02-03T11:02:59;7.80;88.20
40374;DHT22;26079;45.958;12.492;2023-02-03T11:05:27;7.80;87.70
40374;DHT22;26079;45.958;12.492;2023-02-03T11:07:53;7.90;88.10
40374;DHT22;26079;45.958;12.492;2023-02-03T11:12:51;7.90;87.50
40374;DHT22;26079;45.958;12.492;2023-02-03T11:15:19;7.90;87.90
40374;DHT22;26079;45.958;12.492;2023-02-03T11:17:44;8.00;88.00
40374;DHT22;26079;45.958;12.492;2023-02-03T11:20:15;8.10;87.60
40374;DHT22;26079;45.958;12.492;2023-02-03T11:22:42;8.20;86.90
40374;DHT22;26079;45.958;12.492;2023-02-03T11:27:42;8.30;87.60
40374;DHT22;26079;45.958;12.492;2023-02-03T11:30:19;8.30;87.70
40374;DHT22;26079;45.958;12.492;2023-02-03T11:32:49;8.40;86.40
40374;DHT22;26079;45.958;12.492;2023-02-03T11:35:23;8.50;86.70
40374;DHT22;26079;45.958;12.492;2023-02-03T11:37:55;8.60;85.60
40374;DHT22;26079;45.958;12.492;2023-02-03T11:40:24;8.70;84.10
40374;DHT22;26079;45.958;12.492;2023-02-03T11:50:49;9.10;83.30
40374;DHT22;26079;45.958;12.492;2023-02-03T11:53:55;9.10;83.10
40374;DHT22;26079;45.958;12.492;2023-02-03T12:15:15;9.20;80.80
40374;DHT22;26079;45.958;12.492;2023-02-03T12:20:26;9.00;81.20
40374;DHT22;26079;45.958;12.492;2023-02-03T12:23:41;9.20;79.30
40374;DHT22;26079;45.958;12.492;2023-02-03T12:26:24;9.30;78.40
40374;DHT22;26079;45.958;12.492;2023-02-03T12:29:10;9.40;78.70
40374;DHT22;26079;45.958;12.492;2023-02-03T12:37:46;9.60;78.90
40374;DHT22;26079;45.958;12.492;2023-02-03T12:40:17;9.70;76.90
40374;DHT22;26079;45.958;12.492;2023-02-03T12:42:49;9.80;77.70
40374;DHT22;26079;45.958;12.492;2023-02-03T12:45:25;9.80;77.70
40374;DHT22;26079;45.958;12.492;2023-02-03T12:48:14;9.80;77.80
40374;DHT22;26079;45.958;12.492;2023-02-03T12:50:47;9.90;77.60
40374;DHT22;26079;45.958;12.492;2023-02-03T12:56:04;10.10;75.90
40374;DHT22;26079;45.958;12.492;2023-02-03T13:01:15;10.20;75.70
40374;DHT22;26079;45.958;12.492;2023-02-03T13:03:57;10.20;75.60
40374;DHT22;26079;45.958;12.492;2023-02-03T13:06:42;10.20;76.50
40374;DHT22;26079;45.958;12.492;2023-02-03T13:12:30;10.00;77.50
40374;DHT22;26079;45.958;12.492;2023-02-03T13:14:58;10.10;78.00
40374;DHT22;26079;45.958;12.492;2023-02-03T13:17:42;10.00;79.80
40374;DHT22;26079;45.958;12.492;2023-02-03T13:20:18;10.00;79.10
40374;DHT22;26079;45.958;12.492;2023-02-03T13:22:45;9.90;79.60
40374;DHT22;26079;45.958;12.492;2023-02-03T13:25:44;9.80;80.20
40374;DHT22;26079;45.958;12.492;2023-02-03T13:44:39;10.10;79.30
40374;DHT22;26079;45.958;12.492;2023-02-03T13:47:05;10.30;78.70
40374;DHT22;26079;45.958;12.492;2023-02-03T13:49:39;10.40;79.40
40374;DHT22;26079;45.958;12.492;2023-02-03T13:54:59;10.20;80.00
40374;DHT22;26079;45.958;12.492;2023-02-03T13:57:36;10.20;80.70
40374;DHT22;26079;45.958;12.492;2023-02-03T14:03:13;10.30;80.00
40374;DHT22;26079;45.958;12.492;2023-02-03T14:05:47;10.40;79.90
40374;DHT22;26079;45.958;12.492;2023-02-03T14:16:48;10.20;80.80
40374;DHT22;26079;45.958;12.492;2023-02-03T14:24:14;10.10;80.60
40374;DHT22;26079;45.958;12.492;2023-02-03T14:26:47;10.00;80.80
40374;DHT22;26079;45.958;12.492;2023-02-03T14:29:29;10.00;78.90
40374;DHT22;26079;45.958;12.492;2023-02-03T14:32:01;10.00;79.60
40374;DHT22;26079;45.958;12.492;2023-02-03T14:34:33;10.00;79.40
40374;DHT22;26079;45.958;12.492;2023-02-03T14:37:28;9.90;79.40
40374;DHT22;26079;45.958;12.492;2023-02-03T14:40:15;9.90;79.70
40374;DHT22;26079;45.958;12.492;2023-02-03T14:59:01;9.40;86.20
40374;DHT22;26079;45.958;12.492;2023-02-03T15:06:43;9.30;86.70
40374;DHT22;26079;45.958;12.492;2023-02-03T15:09:37;9.20;86.70
40374;DHT22;26079;45.958;12.492;2023-02-03T15:12:24;9.20;86.90
40374;DHT22;26079;45.958;12.492;2023-02-03T15:14:51;9.30;86.20
40374;DHT22;26079;45.958;12.492;2023-02-03T15:17:26;9.20;86.20
40374;DHT22;26079;45.958;12.492;2023-02-03T15:19:52;9.30;86.70
40374;DHT22;26079;45.958;12.492;2023-02-03T15:24:47;9.30;86.90
40374;DHT22;26079;45.958;12.492;2023-02-03T15:27:26;9.20;86.80
40374;DHT22;26079;45.958;12.492;2023-02-03T15:29:53;9.20;87.00
40374;DHT22;26079;45.958;12.492;2023-02-03T15:34:54;9.20;88.00
40374;DHT22;26079;45.958;12.492;2023-02-03T15:37:32;9.20;89.10
40374;DHT22;26079;45.958;12.492;2023-02-03T15:47:40;9.00;91.90
40374;DHT22;26079;45.958;12.492;2023-02-03T15:50:30;8.80;92.10
40374;DHT22;26079;45.958;12.492;2023-02-03T15:53:20;8.60;92.80
40374;DHT22;26079;45.958;12.492;2023-02-03T15:55:49;8.40;93.50
40374;DHT22;26079;45.958;12.492;2023-02-03T15:58:27;8.20;94.10
40374;DHT22;26079;45.958;12.492;2023-02-03T16:01:01;8.00;95.20
40374;DHT22;26079;45.958;12.492;2023-02-03T16:03:46;7.90;95.50
40374;DHT22;26079;45.958;12.492;2023-02-03T16:06:17;7.70;95.90
40374;DHT22;26079;45.958;12.492;2023-02-03T16:08:47;7.60;96.80
40374;DHT22;26079;45.958;12.492;2023-02-03T16:11:21;7.60;97.20
40374;DHT22;26079;45.958;12.492;2023-02-03T16:13:47;7.40;96.90
40374;DHT22;26079;45.958;12.492;2023-02-03T16:16:17;7.30;97.50
40374;DHT22;26079;45.958;12.492;2023-02-03T16:19:34;7.10;98.20
40374;DHT22;26079;45.958;12.492;2023-02-03T16:24:46;6.80;98.90
40374;DHT22;26079;45.958;12.492;2023-02-03T16:29:50;6.60;99.90
40374;DHT22;26079;45.958;12.492;2023-02-03T16:32:35;6.50;99.90
40374;DHT22;26079;45.958;12.492;2023-02-03T16:35:19;6.50;99.90
40374;DHT22;26079;45.958;12.492;2023-02-03T16:38:14;6.50;99.90
40374;DHT22;26079;45.958;12.492;2023-02-03T16:40:59;6.40;99.90
40374;DHT22;26079;45.958;12.492;2023-02-03T16:43:44;6.40;99.90
40374;DHT22;26079;45.958;12.492;2023-02-03T16:46:28;6.30;99.90
40374;DHT22;26079;45.958;12.492;2023-02-03T16:49:12;6.30;99.90
40374;DHT22;26079;45.958;12.492;2023-02-03T16:51:57;6.10;99.90
40374;DHT22;26079;45.958;12.492;2023-02-03T16:54:22;6.00;99.90
40374;DHT22;26079;45.958;12.492;2023-02-03T16:56:48;5.90;99.90
40374;DHT22;26079;45.958;12.492;2023-02-03T16:59:16;5.80;99.90
40374;DHT22;26079;45.958;12.492;2023-02-03T17:01:43;5.80;99.90
40374;DHT22;26079;45.958;12.492;2023-02-03T17:04:09;5.80;99.90
40374;DHT22;26079;45.958;12.492;2023-02-03T17:06:39;5.80;99.90
40374;DHT22;26079;45.958;12.492;2023-02-03T17:09:06;5.80;99.90
40374;DHT22;26079;45.958;12.492;2023-02-03T17:11:31;5.70;99.90
40374;DHT22;26079;45.958;12.492;2023-02-03T17:13:57;5.70;99.90
40374;DHT22;26079;45.958;12.492;2023-02-03T17:16:25;5.70;99.90
40374;DHT22;26079;45.958;12.492;2023-02-03T17:18:51;5.70;99.90
40374;DHT22;26079;45.958;12.492;2023-02-03T17:21:26;5.70;99.90
40374;DHT22;26079;45.958;12.492;2023-02-03T17:23:52;5.70;99.90
40374;DHT22;26079;45.958;12.492;2023-02-03T17:26:18;5.60;99.90
40374;DHT22;26079;45.958;12.492;2023-02-03T17:28:44;5.50;99.90
40374;DHT22;26079;45.958;12.492;2023-02-03T17:31:16;5.50;99.90
40374;DHT22;26079;45.958;12.492;2023-02-03T17:33:43;5.40;99.90
40374;DHT22;26079;45.958;12.492;2023-02-03T17:36:14;5.30;99.90
40374;DHT22;26079;45.958;12.492;2023-02-03T17:38:46;5.30;99.90
40374;DHT22;26079;45.958;12.492;2023-02-03T17:41:17;5.20;99.90
40374;DHT22;26079;45.958;12.492;2023-02-03T17:43:44;5.20;99.90
40374;DHT22;26079;45.958;12.492;2023-02-03T17:46:12;5.20;99.90
40374;DHT22;26079;45.958;12.492;2023-02-03T17:48:38;5.20;99.90
40374;DHT22;26079;45.958;12.492;2023-02-03T17:51:18;5.20;99.90
40374;DHT22;26079;45.958;12.492;2023-02-03T17:53:45;5.30;99.90
40374;DHT22;26079;45.958;12.492;2023-02-03T17:56:22;5.30;99.90
40374;DHT22;26079;45.958;12.492;2023-02-03T17:58:54;5.30;99.90
40374;DHT22;26079;45.958;12.492;2023-02-03T18:01:20;5.20;99.90
40374;DHT22;26079;45.958;12.492;2023-02-03T18:03:48;5.20;99.90
40374;DHT22;26079;45.958;12.492;2023-02-03T18:06:16;5.20;99.90
40374;DHT22;26079;45.958;12.492;2023-02-03T18:08:42;5.10;99.90
40374;DHT22;26079;45.958;12.492;2023-02-03T18:11:08;5.10;99.90
40374;DHT22;26079;45.958;12.492;2023-02-03T18:13:38;5.00;99.90
40374;DHT22;26079;45.958;12.492;2023-02-03T18:16:11;5.00;99.90
40374;DHT22;26079;45.958;12.492;2023-02-03T18:18:37;5.10;99.90
40374;DHT22;26079;45.958;12.492;2023-02-03T18:21:08;5.30;99.90
40374;DHT22;26079;45.958;12.492;2023-02-03T18:23:37;5.40;99.90
40374;DHT22;26079;45.958;12.492;2023-02-03T18:26:04;5.50;99.90
40374;DHT22;26079;45.958;12.492;2023-02-03T18:28:30;5.50;99.90
40374;DHT22;26079;45.958;12.492;2023-02-03T18:31:02;5.50;99.90
40374;DHT22;26079;45.958;12.492;2023-02-03T18:33:29;5.50;99.90
40374;DHT22;26079;45.958;12.492;2023-02-03T18:35:56;5.40;99.90
40374;DHT22;26079;45.958;12.492;2023-02-03T18:38:24;5.30;99.90
40374;DHT22;26079;45.958;12.492;2023-02-03T18:40:50;5.30;99.90